Time;durP1;ratioP1;P1;durP2;ratioP2;P2;SDS_P1;SDS_P2;PMS_P1;PMS_P2;Temp;Humidity;BMP_temperature;BMP_pressure;BME280_temperature;BME280_humidity;BME280_pressure;Samples;Min_cycle;Max_cycle;Signal;HPM_P1;HPM_P2
2022/05/28 00:01:09;;;;;;;3.97;2.10;;;13.40;99.90;;;;;;4954355;28;20039;-74
2022/05/28 00:03:35;;;;;;;3.50;2.10;;;13.40;99.90;;;;;;4950895;28;20023;-73
2022/05/28 00:06:02;;;;;;;4.10;2.10;;;13.40;99.90;;;;;;4951490;28;20083;-74
2022/05/28 00:08:28;;;;;;;4.72;2.13;;;13.40;99.90;;;;;;4955021;28;20027;-74
2022/05/28 00:10:57;;;;;;;4.80;2.40;;;13.40;99.90;;;;;;4951366;28;20031;-74
2022/05/28 00:13:23;;;;;;;4.07;2.45;;;13.30;99.90;;;;;;4949712;28;20062;-74
2022/05/28 00:15:50;;;;;;;4.65;2.38;;;13.40;99.90;;;;;;4967564;28;20084;-74
2022/05/28 00:18:15;;;;;;;3.35;1.98;;;13.40;99.90;;;;;;4956010;28;20019;-74
2022/05/28 00:20:42;;;;;;;2.67;1.60;;;13.40;99.90;;;;;;4949767;28;21271;-73
2022/05/28 00:23:07;;;;;;;5.03;2.60;;;13.40;99.90;;;;;;4953020;28;20510;-74
2022/05/28 00:25:33;;;;;;;3.75;2.28;;;13.40;99.90;;;;;;4943175;28;20023;-73
2022/05/28 00:27:59;;;;;;;3.58;2.08;;;13.40;99.90;;;;;;4951133;28;20388;-73
2022/05/28 00:30:24;;;;;;;5.28;2.40;;;13.40;99.90;;;;;;4954059;28;20042;-74
2022/05/28 00:32:50;;;;;;;3.85;2.63;;;13.40;99.90;;;;;;4945374;28;20062;-73
2022/05/28 00:35:18;;;;;;;2.95;2.47;;;13.40;99.90;;;;;;4948034;28;20031;-74
2022/05/28 00:37:45;;;;;;;6.28;2.67;;;13.50;99.90;;;;;;4952011;28;20380;-74
2022/05/28 00:40:20;;;;;;;3.10;2.17;;;13.60;99.90;;;;;;4964905;28;20034;-74
2022/05/28 00:42:46;;;;;;;4.47;2.38;;;13.50;99.90;;;;;;4952297;28;20396;-73
2022/05/28 00:45:13;;;;;;;4.30;2.15;;;13.40;99.90;;;;;;4964524;28;20031;-74
2022/05/28 00:47:45;;;;;;;4.47;1.80;;;13.30;99.90;;;;;;4952890;28;20053;-74
2022/05/28 00:50:12;;;;;;;5.40;2.60;;;13.30;99.90;;;;;;4948442;28;20035;-74
2022/05/28 00:52:40;;;;;;;5.90;2.47;;;13.30;99.90;;;;;;4956982;28;20151;-74
2022/05/28 00:55:05;;;;;;;5.72;2.53;;;13.30;99.90;;;;;;4952922;28;20035;-74
2022/05/28 00:57:31;;;;;;;4.63;2.72;;;13.40;99.90;;;;;;4950471;28;20061;-74
2022/05/28 00:59:58;;;;;;;9.32;2.88;;;13.30;99.90;;;;;;4944853;28;20098;-74
2022/05/28 01:02:48;;;;;;;5.72;2.70;;;13.30;99.90;;;;;;4958018;28;20015;-73
2022/05/28 01:05:34;;;;;;;7.45;2.78;;;13.20;99.90;;;;;;4951162;28;20019;-73
2022/05/28 01:08:17;;;;;;;5.47;2.50;;;13.20;99.90;;;;;;4954257;28;20027;-73
2022/05/28 01:10:46;;;;;;;10.02;3.38;;;13.20;99.90;;;;;;4957046;28;20035;-73
2022/05/28 01:13:23;;;;;;;8.38;2.97;;;13.10;99.90;;;;;;4957261;28;20514;-74
2022/05/28 01:16:22;;;;;;;4.30;2.45;;;13.10;99.90;;;;;;4956644;28;20038;-74
2022/05/28 01:18:54;;;;;;;8.30;3.15;;;13.00;99.90;;;;;;4961978;28;20055;-74
2022/05/28 01:21:47;;;;;;;9.30;3.10;;;13.00;99.90;;;;;;4954186;28;20026;-74
2022/05/28 01:25:01;;;;;;;8.68;3.35;;;12.90;99.90;;;;;;4950393;28;20031;-74
2022/05/28 01:27:36;;;;;;;5.53;2.78;;;12.90;99.90;;;;;;4967881;28;20039;-73
2022/05/28 01:30:06;;;;;;;8.00;3.28;;;12.90;99.90;;;;;;4944943;28;20546;-74
2022/05/28 01:32:34;;;;;;;14.13;3.35;;;12.80;99.90;;;;;;4948567;28;20127;-73
2022/05/28 01:35:06;;;;;;;7.95;2.70;;;12.80;99.90;;;;;;4951123;28;20536;-74
2022/05/28 01:37:32;;;;;;;9.15;3.25;;;12.80;99.90;;;;;;4944938;28;20049;-74
2022/05/28 01:40:00;;;;;;;8.15;3.22;;;12.80;99.90;;;;;;4942175;28;20035;-74
2022/05/28 01:42:26;;;;;;;8.27;3.63;;;12.80;99.90;;;;;;4954651;28;20035;-75
2022/05/28 01:44:53;;;;;;;7.35;3.22;;;12.80;99.90;;;;;;4948804;28;20042;-75
2022/05/28 01:47:19;;;;;;;7.90;2.90;;;12.80;99.90;;;;;;4948118;28;20389;-75
2022/05/28 01:49:47;;;;;;;6.97;2.97;;;12.80;99.90;;;;;;4953478;28;20039;-75
2022/05/28 01:52:15;;;;;;;10.95;3.05;;;12.80;99.90;;;;;;4951129;28;20058;-75
2022/05/28 01:54:43;;;;;;;15.40;3.42;;;12.80;99.90;;;;;;4944455;28;20035;-75
2022/05/28 01:57:11;;;;;;;4.70;2.90;;;12.80;99.90;;;;;;4947222;28;20038;-75
2022/05/28 01:59:37;;;;;;;5.47;2.45;;;12.80;99.90;;;;;;4952729;28;20027;-75
2022/05/28 02:02:07;;;;;;;5.50;2.92;;;12.80;99.90;;;;;;4952007;28;20086;-75
2022/05/28 02:04:35;;;;;;;6.10;2.88;;;12.90;99.90;;;;;;4947366;28;20056;-75
2022/05/28 02:07:03;;;;;;;8.13;3.30;;;12.90;99.90;;;;;;4941465;28;20645;-74
2022/05/28 02:09:37;;;;;;;6.32;3.10;;;12.90;99.90;;;;;;4951426;28;20020;-76
2022/05/28 02:12:27;;;;;;;4.78;2.65;;;12.90;99.90;;;;;;4948513;28;20031;-75
2022/05/28 02:15:26;;;;;;;6.05;3.17;;;12.90;99.90;;;;;;4947177;28;20031;-75
2022/05/28 02:18:20;;;;;;;6.55;2.88;;;13.00;99.90;;;;;;4967863;28;20035;-74
2022/05/28 02:21:00;;;;;;;8.52;2.67;;;12.90;99.90;;;;;;4955816;28;20126;-74
2022/05/28 02:23:28;;;;;;;5.03;2.97;;;12.90;99.90;;;;;;4947787;28;20065;-74
2022/05/28 02:26:13;;;;;;;7.28;2.83;;;12.90;99.90;;;;;;4951726;28;20039;-74
2022/05/28 02:28:41;;;;;;;7.75;3.38;;;12.80;99.90;;;;;;4947556;28;20050;-74
2022/05/28 02:31:20;;;;;;;6.35;2.95;;;12.90;99.90;;;;;;4948594;28;20859;-75
2022/05/28 02:33:46;;;;;;;10.85;2.97;;;13.00;99.90;;;;;;4950782;28;20035;-74
2022/05/28 02:36:14;;;;;;;11.55;3.47;;;12.90;99.90;;;;;;4952606;28;20496;-74
2022/05/28 02:38:40;;;;;;;7.65;3.08;;;12.90;99.90;;;;;;4949978;28;20114;-74
2022/05/28 02:41:06;;;;;;;6.15;2.63;;;13.00;99.90;;;;;;4943605;28;20105;-75
2022/05/28 02:43:31;;;;;;;15.70;3.70;;;12.90;99.90;;;;;;4947832;28;20488;-74
2022/05/28 02:45:58;;;;;;;12.98;2.95;;;12.90;99.90;;;;;;4951083;28;20027;-74
2022/05/28 02:48:24;;;;;;;10.20;3.00;;;12.90;99.90;;;;;;4952521;28;20031;-74
2022/05/28 02:50:50;;;;;;;8.90;2.88;;;12.90;99.90;;;;;;4951344;28;20110;-74
2022/05/28 02:53:16;;;;;;;13.75;3.05;;;12.90;99.90;;;;;;4946644;28;20122;-74
2022/05/28 02:55:42;;;;;;;8.90;3.08;;;12.90;99.90;;;;;;4952573;28;20082;-74
2022/05/28 02:58:07;;;;;;;9.88;2.97;;;12.90;99.90;;;;;;4950109;28;20031;-75
2022/05/28 03:00:33;;;;;;;9.50;2.60;;;12.90;99.90;;;;;;4964648;28;20551;-75
2022/05/28 03:02:59;;;;;;;5.57;2.20;;;12.80;99.90;;;;;;4951168;28;20049;-74
2022/05/28 03:05:26;;;;;;;6.10;2.67;;;12.80;99.90;;;;;;4950331;28;20039;-74
2022/05/28 03:07:52;;;;;;;10.45;2.53;;;12.80;99.90;;;;;;4952175;28;20046;-74
2022/05/28 03:10:18;;;;;;;14.45;3.20;;;12.80;99.90;;;;;;4948552;28;20480;-74
2022/05/28 03:12:44;;;;;;;11.60;2.72;;;12.70;99.90;;;;;;4949117;28;20030;-74
2022/05/28 03:15:11;;;;;;;6.22;2.25;;;12.70;99.90;;;;;;4955921;28;20491;-74
2022/05/28 03:17:37;;;;;;;13.48;2.58;;;12.60;99.90;;;;;;4960053;28;20364;-74
2022/05/28 03:20:04;;;;;;;9.93;3.22;;;12.60;99.90;;;;;;4955313;28;20029;-74
2022/05/28 03:22:30;;;;;;;5.60;2.35;;;12.50;99.90;;;;;;4963072;28;20059;-74
2022/05/28 03:24:56;;;;;;;9.85;2.60;;;12.50;99.90;;;;;;4953391;28;20035;-74
2022/05/28 03:27:21;;;;;;;7.57;2.88;;;12.50;99.90;;;;;;4958961;28;20381;-74
2022/05/28 03:29:47;;;;;;;7.80;2.80;;;12.50;99.90;;;;;;4957325;28;20042;-73
2022/05/28 03:32:13;;;;;;;10.40;2.78;;;12.40;99.90;;;;;;4949094;28;20049;-73
2022/05/28 03:34:38;;;;;;;7.82;2.50;;;12.30;99.90;;;;;;4970120;28;20038;-74
2022/05/28 03:37:05;;;;;;;8.65;2.42;;;12.30;99.90;;;;;;4951917;28;20031;-75
2022/05/28 03:39:30;;;;;;;11.20;2.25;;;12.30;99.90;;;;;;4951091;28;20484;-74
2022/05/28 03:41:56;;;;;;;9.45;1.85;;;12.30;99.90;;;;;;4950814;28;20030;-73
2022/05/28 03:44:21;;;;;;;10.77;2.22;;;12.30;99.90;;;;;;4952356;28;20039;-73
2022/05/28 03:46:48;;;;;;;8.80;2.67;;;12.30;99.90;;;;;;4953840;28;20046;-73
2022/05/28 03:49:29;;;;;;;12.95;2.30;;;12.30;99.90;;;;;;4954202;28;20035;-73
2022/05/28 03:51:55;;;;;;;7.55;2.60;;;12.30;99.90;;;;;;4954913;28;20023;-73
2022/05/28 03:54:21;;;;;;;9.10;2.10;;;12.30;99.90;;;;;;4958209;28;20039;-72
2022/05/28 03:56:48;;;;;;;7.47;2.47;;;12.30;99.90;;;;;;4951638;28;20043;-72
2022/05/28 03:59:14;;;;;;;9.25;2.40;;;12.30;99.90;;;;;;4950331;28;20128;-73
2022/05/28 04:01:40;;;;;;;8.32;2.28;;;12.30;99.90;;;;;;4949752;28;20028;-73
2022/05/28 04:04:06;;;;;;;7.82;2.00;;;12.20;99.90;;;;;;4951552;28;20035;-73
2022/05/28 04:06:35;;;;;;;8.77;2.67;;;12.20;99.90;;;;;;4954083;28;20027;-73
2022/05/28 04:09:02;;;;;;;5.60;1.98;;;12.20;99.90;;;;;;4954144;28;20042;-73
2022/05/28 04:11:28;;;;;;;11.10;2.08;;;12.30;99.90;;;;;;4949349;28;20042;-73
2022/05/28 04:13:54;;;;;;;6.82;2.00;;;12.30;99.90;;;;;;4954787;28;20113;-73
2022/05/28 04:16:20;;;;;;;8.40;1.92;;;12.20;99.90;;;;;;4969619;28;20488;-73
2022/05/28 04:18:45;;;;;;;5.20;1.77;;;12.20;99.90;;;;;;4951568;28;20439;-73
2022/05/28 04:21:11;;;;;;;10.00;2.03;;;12.20;99.90;;;;;;4949347;28;20392;-73
2022/05/28 04:23:37;;;;;;;10.88;1.65;;;12.30;99.90;;;;;;4946189;28;20028;-73
2022/05/28 04:26:03;;;;;;;7.85;1.80;;;12.20;99.40;;;;;;4955771;28;20027;-73
2022/05/28 04:28:29;;;;;;;9.68;2.35;;;12.20;99.50;;;;;;4947066;28;20110;-73
2022/05/28 04:30:55;;;;;;;6.63;1.70;;;12.20;99.00;;;;;;4948494;28;20048;-73
2022/05/28 04:33:20;;;;;;;5.68;1.42;;;12.30;98.80;;;;;;4951425;28;20444;-73
2022/05/28 04:35:46;;;;;;;7.03;1.58;;;12.20;98.50;;;;;;4947385;28;20031;-74
2022/05/28 04:38:12;;;;;;;8.48;1.90;;;12.20;98.40;;;;;;4948633;28;20027;-74
2022/05/28 04:40:37;;;;;;;9.60;1.83;;;12.30;97.90;;;;;;4949674;28;20388;-72
2022/05/28 04:43:03;;;;;;;8.77;2.22;;;12.30;97.70;;;;;;4947517;28;20020;-72
2022/05/28 04:45:29;;;;;;;12.63;1.95;;;12.20;97.00;;;;;;4949762;28;20054;-72
2022/05/28 04:47:54;;;;;;;6.40;1.60;;;12.30;97.40;;;;;;4950778;28;20511;-73
2022/05/28 04:50:20;;;;;;;6.38;2.00;;;12.30;97.10;;;;;;4945776;28;20118;-73
2022/05/28 04:52:46;;;;;;;7.40;1.58;;;12.30;97.00;;;;;;4949704;28;20035;-73
2022/05/28 04:55:12;;;;;;;11.85;2.65;;;12.30;96.70;;;;;;4946745;28;20050;-73
2022/05/28 04:57:38;;;;;;;7.57;1.52;;;12.40;96.80;;;;;;4945913;28;20042;-73
2022/05/28 05:00:08;;;;;;;8.30;2.10;;;12.30;96.80;;;;;;4950598;28;20049;-73
2022/05/28 05:02:35;;;;;;;10.63;1.75;;;12.30;97.00;;;;;;4951196;28;20575;-72
2022/05/28 05:05:00;;;;;;;13.32;1.75;;;12.30;97.00;;;;;;4950284;28;20035;-72
2022/05/28 05:07:26;;;;;;;8.07;1.40;;;12.30;96.90;;;;;;4951718;28;20039;-72
2022/05/28 05:09:52;;;;;;;5.88;1.55;;;12.30;97.00;;;;;;4949510;28;20043;-73
2022/05/28 05:12:17;;;;;;;9.35;2.08;;;12.30;97.00;;;;;;4948182;28;20511;-74
2022/05/28 05:14:43;;;;;;;6.90;1.40;;;12.30;96.90;;;;;;4950827;28;20112;-73
2022/05/28 05:17:09;;;;;;;8.90;2.00;;;12.40;96.90;;;;;;4949479;28;20042;-73
2022/05/28 05:19:34;;;;;;;7.57;1.85;;;12.40;97.00;;;;;;4955405;28;20031;-74
2022/05/28 05:22:00;;;;;;;8.88;1.67;;;12.40;97.00;;;;;;4949333;28;20393;-74
2022/05/28 05:24:26;;;;;;;6.07;1.20;;;12.50;97.10;;;;;;4952385;28;20030;-74
2022/05/28 05:26:52;;;;;;;10.10;2.00;;;12.50;96.90;;;;;;4954353;28;20042;-74
2022/05/28 05:29:18;;;;;;;5.18;1.45;;;12.60;96.80;;;;;;4949325;28;20038;-73
2022/05/28 05:31:44;;;;;;;9.20;1.67;;;12.60;96.30;;;;;;4951931;28;20035;-73
2022/05/28 05:34:10;;;;;;;10.40;2.00;;;12.70;96.20;;;;;;4947272;28;20019;-74
2022/05/28 05:36:36;;;;;;;7.35;1.63;;;12.70;95.90;;;;;;4951833;28;20119;-73
2022/05/28 05:39:03;;;;;;;7.80;2.13;;;12.70;95.60;;;;;;4952852;28;20400;-73
2022/05/28 05:41:29;;;;;;;8.10;1.70;;;12.50;95.20;;;;;;4946010;28;20058;-73
2022/05/28 05:43:54;;;;;;;7.20;1.45;;;12.40;95.30;;;;;;4946757;28;20067;-73
2022/05/28 05:46:20;;;;;;;7.43;1.50;;;12.30;95.60;;;;;;4948526;28;20035;-72
2022/05/28 05:48:46;;;;;;;13.70;2.40;;;12.40;96.00;;;;;;4952733;28;20120;-71
2022/05/28 05:51:15;;;;;;;6.10;1.30;;;12.60;96.20;;;;;;4948225;28;20680;-71
2022/05/28 05:53:42;;;;;;;7.47;1.38;;;12.80;95.40;;;;;;4947343;28;20034;-71
2022/05/28 05:56:07;;;;;;;9.25;1.90;;;12.90;95.20;;;;;;4953665;28;20062;-73
2022/05/28 05:58:34;;;;;;;4.40;1.60;;;13.00;94.70;;;;;;4949373;28;20486;-73
2022/05/28 06:01:02;;;;;;;9.73;1.95;;;13.00;94.60;;;;;;4951431;28;20091;-73
2022/05/28 06:03:28;;;;;;;5.97;1.45;;;13.10;94.60;;;;;;4948954;28;20024;-69
2022/05/28 06:05:58;;;;;;;6.40;1.80;;;13.20;94.10;;;;;;4950152;28;20123;-69
2022/05/28 06:08:24;;;;;;;7.72;2.03;;;13.10;94.10;;;;;;4951585;28;20031;-69
2022/05/28 06:10:50;;;;;;;10.48;1.85;;;13.10;94.20;;;;;;4947872;28;20035;-70
2022/05/28 06:13:15;;;;;;;5.38;1.92;;;13.10;94.30;;;;;;4949281;28;20028;-70
2022/05/28 06:15:41;;;;;;;12.07;1.67;;;13.20;94.60;;;;;;4968213;28;20035;-69
2022/05/28 06:18:07;;;;;;;8.68;1.83;;;13.50;94.50;;;;;;4944364;28;20039;-70
2022/05/28 06:20:34;;;;;;;3.60;1.30;;;13.40;94.20;;;;;;4945157;28;20039;-70
2022/05/28 06:23:01;;;;;;;6.60;1.90;;;13.20;93.80;;;;;;4939968;28;20051;-73
2022/05/28 06:25:26;;;;;;;5.35;1.70;;;13.10;93.90;;;;;;4950062;28;20039;-75
2022/05/28 06:27:52;;;;;;;5.90;1.30;;;13.00;93.90;;;;;;4945033;28;20046;-74
2022/05/28 06:30:18;;;;;;;6.53;1.65;;;13.00;93.30;;;;;;4947465;28;20708;-73
2022/05/28 06:32:43;;;;;;;7.07;2.03;;;12.70;93.00;;;;;;4947229;28;20031;-72
2022/05/28 06:35:09;;;;;;;5.90;1.48;;;12.80;93.70;;;;;;4955199;28;20020;-72
2022/05/28 06:37:36;;;;;;;5.22;1.33;;;12.70;94.20;;;;;;4951301;28;20058;-72
2022/05/28 06:40:03;;;;;;;6.43;1.60;;;12.70;94.30;;;;;;4943884;28;20539;-73
2022/05/28 06:42:29;;;;;;;4.40;1.52;;;12.70;94.30;;;;;;4940347;28;20018;-74
2022/05/28 06:44:55;;;;;;;9.98;2.03;;;12.80;94.70;;;;;;4962761;28;20027;-73
2022/05/28 06:47:21;;;;;;;7.63;1.40;;;12.80;94.60;;;;;;4950464;28;20152;-73
2022/05/28 06:51:01;;;;;;;9.50;2.08;;;12.90;94.60;;;;;;4944856;28;20038;-74
2022/05/28 06:52:33;;;;;;;9.38;1.83;;;12.90;94.50;;;;;;4953629;28;20035;-73
2022/05/28 06:54:58;;;;;;;6.15;1.80;;;12.80;94.50;;;;;;4958671;28;20917;-74
2022/05/28 06:57:24;;;;;;;7.53;1.65;;;12.80;94.60;;;;;;4958861;28;20031;-74
2022/05/28 06:59:50;;;;;;;6.57;1.88;;;12.80;94.10;;;;;;4950215;28;20039;-73
2022/05/28 07:02:16;;;;;;;6.88;2.15;;;12.80;94.40;;;;;;4951780;28;20061;-74
2022/05/28 07:04:42;;;;;;;5.97;1.30;;;12.90;94.20;;;;;;4957284;28;20023;-73
2022/05/28 07:07:07;;;;;;;5.28;1.48;;;13.00;94.10;;;;;;4952067;28;20059;-74
2022/05/28 07:09:33;;;;;;;7.53;1.80;;;13.00;94.00;;;;;;4960667;28;20030;-73
2022/05/28 07:11:58;;;;;;;7.35;1.85;;;13.00;94.30;;;;;;4949745;28;20043;-74
2022/05/28 07:14:24;;;;;;;7.43;1.63;;;13.10;94.20;;;;;;4958214;28;20129;-74
2022/05/28 07:16:50;;;;;;;7.18;1.95;;;13.10;94.30;;;;;;4952331;28;20039;-74
2022/05/28 07:19:15;;;;;;;6.60;1.67;;;13.20;94.30;;;;;;4949749;28;20113;-74
2022/05/28 07:21:41;;;;;;;7.88;1.65;;;13.20;94.10;;;;;;4953651;28;20524;-74
2022/05/28 07:24:07;;;;;;;4.88;1.60;;;13.20;94.00;;;;;;4956978;28;20500;-72
2022/05/28 07:26:32;;;;;;;9.98;2.22;;;13.20;94.20;;;;;;4945687;28;20027;-72
2022/05/28 07:28:58;;;;;;;11.07;1.80;;;13.10;93.90;;;;;;4952844;28;20440;-72
2022/05/28 07:31:24;;;;;;;7.32;1.55;;;13.20;93.80;;;;;;4951408;28;20034;-72
2022/05/28 07:33:50;;;;;;;8.98;1.95;;;13.30;93.30;;;;;;4953491;28;20527;-72
2022/05/28 07:36:19;;;;;;;10.07;2.10;;;13.30;92.60;;;;;;4969345;28;20077;-72
2022/05/28 07:38:44;;;;;;;12.20;1.98;;;13.30;92.30;;;;;;4953234;28;20400;-72
2022/05/28 07:41:15;;;;;;;6.80;1.90;;;13.20;92.60;;;;;;4952567;28;20024;-72
2022/05/28 07:43:42;;;;;;;6.82;1.40;;;13.30;93.20;;;;;;4954260;28;20032;-72
2022/05/28 07:46:13;;;;;;;5.65;1.35;;;13.40;93.70;;;;;;4949369;28;20507;-73
2022/05/28 07:48:38;;;;;;;5.45;1.13;;;13.60;92.80;;;;;;4950573;28;20027;-74
2022/05/28 07:51:04;;;;;;;4.45;1.40;;;13.60;91.80;;;;;;4949104;28;20039;-74
2022/05/28 07:53:30;;;;;;;7.85;1.90;;;13.80;92.10;;;;;;4950170;28;20028;-73
2022/05/28 07:55:55;;;;;;;7.55;1.75;;;13.90;92.90;;;;;;4951773;28;20393;-73
2022/05/28 07:58:21;;;;;;;8.60;1.75;;;14.00;92.50;;;;;;4950789;28;20485;-71
2022/05/28 08:00:48;;;;;;;6.20;1.75;;;14.10;92.20;;;;;;4947838;28;20037;-73
2022/05/28 08:03:15;;;;;;;6.43;1.90;;;14.20;92.60;;;;;;4952953;28;20033;-73
2022/05/28 08:05:44;;;;;;;8.48;1.67;;;14.20;92.50;;;;;;4950264;28;20036;-76
2022/05/28 08:08:11;;;;;;;11.30;2.40;;;14.30;92.30;;;;;;4950623;28;20070;-73
2022/05/28 08:10:37;;;;;;;8.75;1.70;;;14.40;91.70;;;;;;4959102;28;20031;-72
2022/05/28 08:13:06;;;;;;;8.35;1.70;;;14.40;91.10;;;;;;4951840;28;20042;-72
2022/05/28 08:15:34;;;;;;;4.20;1.50;;;14.40;90.80;;;;;;4952126;28;20470;-73
2022/05/28 08:17:59;;;;;;;8.32;1.55;;;14.50;91.10;;;;;;4955911;28;20039;-73
2022/05/28 08:23:09;;;;;;;9.60;2.13;;;14.80;90.90;;;;;;4952031;28;20105;-73
2022/05/28 08:25:36;;;;;;;7.43;2.42;;;14.90;90.70;;;;;;4949942;28;20038;-73
2022/05/28 08:28:02;;;;;;;8.85;1.75;;;15.00;90.30;;;;;;4968024;28;20484;-72
2022/05/28 08:30:27;;;;;;;7.07;1.48;;;15.00;89.90;;;;;;4952875;28;20034;-73
2022/05/28 08:32:53;;;;;;;6.93;1.73;;;15.20;89.90;;;;;;4952942;28;20547;-73
2022/05/28 08:35:20;;;;;;;4.38;1.45;;;15.30;88.70;;;;;;4949685;28;20055;-72
2022/05/28 08:37:45;;;;;;;7.07;1.40;;;15.30;89.10;;;;;;4951930;28;20494;-73
2022/05/28 08:40:13;;;;;;;7.03;1.80;;;15.30;88.20;;;;;;4953544;28;20105;-73
2022/05/28 08:42:39;;;;;;;4.57;1.30;;;15.20;87.50;;;;;;4949510;28;20111;-73
2022/05/28 08:45:06;;;;;;;4.60;1.52;;;15.20;85.90;;;;;;4956162;28;20027;-73
2022/05/28 08:47:40;;;;;;;5.50;1.40;;;15.10;85.70;;;;;;4952781;28;20027;-73
2022/05/28 08:50:07;;;;;;;7.05;1.25;;;15.10;85.20;;;;;;4950324;28;20074;-73
2022/05/28 08:52:42;;;;;;;4.78;1.27;;;15.10;85.20;;;;;;4951882;28;20732;-73
2022/05/28 08:55:13;;;;;;;5.95;1.30;;;15.20;85.30;;;;;;4951306;28;20030;-74
2022/05/28 08:57:53;;;;;;;6.35;1.23;;;15.20;84.50;;;;;;4954918;28;20035;-73
2022/05/28 09:00:39;;;;;;;4.22;0.88;;;15.10;83.90;;;;;;4947459;28;20028;-73
2022/05/28 09:03:28;;;;;;;5.03;1.60;;;15.00;83.70;;;;;;4949252;28;20038;-72
2022/05/28 09:06:08;;;;;;;5.18;1.65;;;15.00;83.40;;;;;;4945435;28;20031;-73
2022/05/28 09:08:41;;;;;;;5.88;1.45;;;15.00;84.10;;;;;;4966135;28;20028;-74
2022/05/28 09:11:16;;;;;;;5.22;1.20;;;14.90;82.90;;;;;;4949119;28;20395;-74
2022/05/28 09:13:48;;;;;;;5.35;1.27;;;14.90;82.30;;;;;;4947346;28;20098;-73
2022/05/28 09:16:26;;;;;;;3.13;0.98;;;15.10;81.10;;;;;;4942145;28;20026;-73
2022/05/28 09:18:54;;;;;;;8.63;1.98;;;15.10;80.30;;;;;;4950175;28;20031;-74
2022/05/28 09:21:21;;;;;;;3.13;1.00;;;15.20;79.90;;;;;;4946709;28;20046;-74
2022/05/28 09:23:58;;;;;;;3.22;1.08;;;15.20;79.50;;;;;;4955880;28;20542;-73
2022/05/28 09:26:42;;;;;;;5.60;1.23;;;15.40;78.20;;;;;;4952741;28;20472;-73
2022/05/28 09:29:17;;;;;;;3.13;1.00;;;15.40;77.90;;;;;;4956771;28;20042;-73
2022/05/28 09:32:04;;;;;;;9.00;1.35;;;15.50;78.30;;;;;;4946060;28;20035;-73
2022/05/28 09:34:50;;;;;;;5.72;1.10;;;15.70;78.30;;;;;;4948730;28;20531;-73
2022/05/28 09:37:24;;;;;;;3.80;1.10;;;15.70;77.80;;;;;;4956907;28;20081;-74
2022/05/28 09:40:25;;;;;;;5.10;1.48;;;15.90;77.30;;;;;;4952141;28;20380;-73
2022/05/28 09:43:12;;;;;;;8.05;1.30;;;15.90;76.50;;;;;;4947114;28;20046;-73
2022/05/28 09:45:54;;;;;;;5.53;1.40;;;16.00;76.70;;;;;;4951242;28;20034;-73
2022/05/28 09:48:26;;;;;;;6.95;2.08;;;16.00;76.20;;;;;;4944891;28;20110;-74
2022/05/28 09:50:52;;;;;;;4.63;0.90;;;15.90;75.60;;;;;;4945586;28;20049;-75
2022/05/28 09:56:37;;;;;;;2.72;0.98;;;16.00;75.20;;;;;;4944304;28;20633;-77
2022/05/28 09:59:29;;;;;;;7.53;1.02;;;16.00;74.40;;;;;;4949439;28;20384;-76
2022/05/28 10:01:59;;;;;;;3.65;0.82;;;16.20;73.80;;;;;;4964493;28;20031;-73
2022/05/28 10:04:29;;;;;;;4.60;0.73;;;16.20;73.50;;;;;;4948347;28;20113;-75
2022/05/28 10:06:56;;;;;;;5.07;1.10;;;16.20;72.30;;;;;;4967705;28;20030;-75
2022/05/28 10:09:33;;;;;;;3.03;1.00;;;16.30;72.10;;;;;;4911210;28;20113;-74
2022/05/28 10:12:07;;;;;;;2.50;0.80;;;16.40;71.50;;;;;;4970530;28;20035;-75
2022/05/28 10:14:33;;;;;;;5.63;0.98;;;16.50;71.30;;;;;;4975230;28;20120;-74
2022/05/28 10:17:04;;;;;;;4.30;1.73;;;16.60;70.60;;;;;;4962767;28;20036;-74
2022/05/28 10:19:38;;;;;;;3.03;0.80;;;16.60;71.10;;;;;;4966004;28;20057;-74
2022/05/28 10:22:04;;;;;;;;;;;16.60;71.20;;;;;;4973282;28;20061;-74
2022/05/28 10:24:42;;;;;;;5.72;1.27;;;16.50;71.00;;;;;;4962285;28;19917;-74
2022/05/28 10:27:25;;;;;;;2.67;0.73;;;16.50;68.70;;;;;;4971848;28;20039;-73
2022/05/28 10:29:52;;;;;;;2.72;0.80;;;16.40;68.70;;;;;;4966309;28;20027;-74
2022/05/28 10:32:27;;;;;;;5.22;1.02;;;16.60;68.50;;;;;;4964941;28;20058;-74
2022/05/28 10:35:23;;;;;;;3.15;1.00;;;16.70;68.50;;;;;;4968528;28;21655;-74
2022/05/28 10:37:49;;;;;;;5.47;1.20;;;16.90;68.20;;;;;;4974143;28;20596;-74
2022/05/28 10:40:22;;;;;;;5.20;0.93;;;17.10;68.50;;;;;;4960867;28;20038;-73
2022/05/28 10:42:49;;;;;;;6.57;1.90;;;17.30;67.80;;;;;;4968440;28;20018;-74
2022/05/28 10:45:17;;;;;;;6.10;1.52;;;17.30;67.00;;;;;;4960113;28;20047;-74
2022/05/28 10:48:11;;;;;;;4.95;0.80;;;17.10;66.20;;;;;;4964691;28;20026;-74
2022/05/28 10:51:11;;;;;;;2.85;1.00;;;17.10;66.70;;;;;;4960182;28;20472;-73
2022/05/28 10:54:18;;;;;;;3.28;0.80;;;17.20;66.20;;;;;;4969600;28;20029;-74
2022/05/28 10:57:23;;;;;;;2.60;0.90;;;17.30;66.70;;;;;;4967006;28;20050;-75
2022/05/28 11:00:05;;;;;;;4.38;1.50;;;17.20;65.50;;;;;;4972145;28;20027;-75
2022/05/28 11:03:10;;;;;;;4.45;1.10;;;17.30;66.00;;;;;;4965872;28;20118;-75
2022/05/28 11:05:51;;;;;;;7.72;1.98;;;17.30;66.00;;;;;;4961945;28;20042;-75
2022/05/28 11:08:42;;;;;;;4.47;0.88;;;17.30;66.60;;;;;;4962584;28;20054;-75
2022/05/28 11:11:43;;;;;;;8.10;1.50;;;17.20;66.50;;;;;;4955705;28;20490;-74
2022/05/28 11:14:33;;;;;;;4.88;1.13;;;17.10;66.70;;;;;;4968853;28;20114;-75
2022/05/28 11:16:59;;;;;;;4.82;1.15;;;16.90;67.30;;;;;;4960854;28;20031;-75
2022/05/28 11:19:56;;;;;;;5.60;1.48;;;16.70;66.90;;;;;;4965983;28;20042;-75
2022/05/28 11:22:37;;;;;;;7.00;2.33;;;16.80;67.40;;;;;;4952669;28;21913;-75
2022/05/28 11:25:38;;;;;;;3.05;1.05;;;16.70;67.50;;;;;;4963001;28;20019;-77
2022/05/28 11:28:27;;;;;;;1.50;0.60;;;16.60;65.00;;;;;;4976377;28;20186;-76
2022/05/28 11:30:59;;;;;;;4.93;1.10;;;16.60;64.90;;;;;;4987152;23;20326;-72
2022/05/28 11:33:40;;;;;;;4.40;0.85;;;16.80;65.20;;;;;;4983852;28;20026;-73
2022/05/28 11:36:12;;;;;;;3.55;0.80;;;16.90;64.70;;;;;;4992239;28;20105;-72
2022/05/28 11:38:49;;;;;;;4.30;1.00;;;17.00;65.00;;;;;;4999701;28;20026;-72
2022/05/28 11:41:34;;;;;;;5.53;0.93;;;17.00;64.40;;;;;;4990109;28;20034;-72
2022/05/28 11:44:22;;;;;;;4.18;1.08;;;17.10;64.60;;;;;;4975250;28;20031;-70
2022/05/28 11:46:50;;;;;;;2.65;0.85;;;17.20;67.40;;;;;;4993614;28;20041;-72
2022/05/28 11:52:36;;;;;;;5.07;1.30;;;17.40;68.80;;;;;;5001226;28;20120;-71
2022/05/28 11:55:11;;;;;;;4.45;1.20;;;17.60;66.90;;;;;;4991127;28;20550;-71
2022/05/28 11:57:51;;;;;;;6.50;1.33;;;17.60;65.90;;;;;;4999313;28;20036;-71
2022/05/28 12:00:19;;;;;;;2.97;1.05;;;17.70;66.60;;;;;;5000010;28;20026;-71
2022/05/28 12:03:09;;;;;;;4.32;1.08;;;17.90;66.80;;;;;;5001851;28;20072;-71
2022/05/28 12:05:43;;;;;;;1.75;0.93;;;18.00;65.20;;;;;;4981097;28;20026;-71
2022/05/28 12:08:20;;;;;;;4.00;1.13;;;17.90;65.00;;;;;;4983315;28;20026;-72
2022/05/28 12:10:53;;;;;;;3.83;1.00;;;17.90;65.30;;;;;;4989914;28;20068;-73
2022/05/28 12:13:49;;;;;;;3.55;0.90;;;18.10;63.10;;;;;;5001567;28;20031;-75
2022/05/28 12:16:21;;;;;;;3.22;0.70;;;18.10;62.00;;;;;;5000555;28;20553;-73
2022/05/28 12:18:59;;;;;;;3.88;1.10;;;18.00;61.80;;;;;;5004033;28;20050;-73
2022/05/28 12:21:37;;;;;;;2.95;1.00;;;17.80;62.50;;;;;;4997240;28;20032;-73
2022/05/28 12:24:19;;;;;;;4.90;1.00;;;17.70;64.10;;;;;;4982793;28;20006;-74
2022/05/28 12:29:39;;;;;;;4.78;1.70;;;17.50;65.90;;;;;;4991352;28;20039;-73
2022/05/28 12:32:17;;;;;;;5.80;1.55;;;17.40;65.20;;;;;;4995689;28;20031;-73
2022/05/28 12:35:07;;;;;;;6.45;1.35;;;17.50;66.00;;;;;;4996040;28;20026;-70
2022/05/28 12:37:35;;;;;;;2.20;1.10;;;17.50;67.60;;;;;;4991339;28;20034;-70
2022/05/28 12:40:12;;;;;;;5.53;0.95;;;17.70;66.60;;;;;;5000385;28;20025;-70
2022/05/28 12:42:38;;;;;;;3.97;0.95;;;17.90;66.70;;;;;;4992979;28;20558;-70
2022/05/28 12:45:13;;;;;;;2.60;0.80;;;18.00;66.70;;;;;;4997419;28;20054;-70
2022/05/28 12:47:39;;;;;;;3.63;1.08;;;18.00;65.70;;;;;;4981720;28;20041;-70
2022/05/28 12:50:27;;;;;;;3.92;0.93;;;17.80;65.00;;;;;;4987318;28;20022;-70
2022/05/28 12:52:53;;;;;;;2.30;0.80;;;17.80;63.90;;;;;;4993600;28;20627;-70
2022/05/28 12:55:39;;;;;;;4.22;0.90;;;17.70;64.90;;;;;;4997100;28;20123;-70
2022/05/28 12:58:05;;;;;;;3.72;0.85;;;17.70;63.60;;;;;;4998536;28;20479;-70
2022/05/28 13:00:49;;;;;;;4.07;1.00;;;17.70;62.80;;;;;;4997525;28;20048;-70
2022/05/28 13:03:18;;;;;;;3.90;0.82;;;17.60;62.50;;;;;;4981860;28;20053;-70
2022/05/28 13:05:51;;;;;;;5.20;1.13;;;17.60;63.10;;;;;;4997569;28;20046;-69
2022/05/28 13:08:23;;;;;;;2.88;0.98;;;17.60;63.40;;;;;;4999856;28;20487;-70
2022/05/28 13:10:54;;;;;;;2.80;1.02;;;17.70;62.80;;;;;;4970441;28;20041;-70
2022/05/28 13:13:58;;;;;;;4.22;1.20;;;17.90;62.90;;;;;;4996977;28;20022;-70
2022/05/28 13:17:01;;;;;;;1.25;0.60;;;17.90;60.70;;;;;;4990717;28;21008;-70
2022/05/28 13:20:01;;;;;;;3.97;0.98;;;17.80;60.40;;;;;;4913436;29;20055;-70